sensor_id;sensor_type;location;lat;lon;timestamp;temperature;humidity
2363;DHT22;64265;51.664;7.626;2024-02-14T00:00:26;20.80;71.10
2363;DHT22;64265;51.664;7.626;2024-02-14T00:02:53;20.90;71.10
2363;DHT22;64265;51.664;7.626;2024-02-14T00:05:26;20.80;71.10
2363;DHT22;64265;51.664;7.626;2024-02-14T00:07:54;20.70;71.00
2363;DHT22;64265;51.664;7.626;2024-02-14T00:10:25;20.80;71.50
2363;DHT22;64265;51.664;7.626;2024-02-14T00:12:53;20.60;70.90
2363;DHT22;64265;51.664;7.626;2024-02-14T00:15:22;20.80;71.30
2363;DHT22;64265;51.664;7.626;2024-02-14T00:17:52;20.80;71.40
2363;DHT22;64265;51.664;7.626;2024-02-14T00:20:23;20.60;71.00
2363;DHT22;64265;51.664;7.626;2024-02-14T00:22:50;20.80;71.20
2363;DHT22;64265;51.664;7.626;2024-02-14T00:25:17;20.80;72.20
2363;DHT22;64265;51.664;7.626;2024-02-14T00:27:44;20.70;71.30
2363;DHT22;64265;51.664;7.626;2024-02-14T00:30:11;20.80;71.40
2363;DHT22;64265;51.664;7.626;2024-02-14T00:32:43;20.70;71.40
2363;DHT22;64265;51.664;7.626;2024-02-14T00:35:13;20.70;71.40
2363;DHT22;64265;51.664;7.626;2024-02-14T00:37:41;20.80;71.30
2363;DHT22;64265;51.664;7.626;2024-02-14T00:40:13;21.00;71.70
2363;DHT22;64265;51.664;7.626;2024-02-14T00:42:44;20.70;71.10
2363;DHT22;64265;51.664;7.626;2024-02-14T00:45:10;20.70;71.40
2363;DHT22;64265;51.664;7.626;2024-02-14T00:47:40;20.70;71.60
2363;DHT22;64265;51.664;7.626;2024-02-14T00:50:07;20.70;71.30
2363;DHT22;64265;51.664;7.626;2024-02-14T00:52:34;20.70;71.70
2363;DHT22;64265;51.664;7.626;2024-02-14T00:55:03;20.50;71.10
2363;DHT22;64265;51.664;7.626;2024-02-14T00:57:30;20.70;71.20
2363;DHT22;64265;51.664;7.626;2024-02-14T00:59:56;20.60;71.30
2363;DHT22;64265;51.664;7.626;2024-02-14T01:02:23;20.50;71.10
2363;DHT22;64265;51.664;7.626;2024-02-14T01:04:51;20.60;71.40
2363;DHT22;64265;51.664;7.626;2024-02-14T01:07:20;20.60;71.40
2363;DHT22;64265;51.664;7.626;2024-02-14T01:09:49;20.90;71.90
2363;DHT22;64265;51.664;7.626;2024-02-14T01:12:17;20.70;71.60
2363;DHT22;64265;51.664;7.626;2024-02-14T01:14:46;20.40;71.30
2363;DHT22;64265;51.664;7.626;2024-02-14T01:17:18;20.80;71.70
2363;DHT22;64265;51.664;7.626;2024-02-14T01:19:46;20.60;71.40
2363;DHT22;64265;51.664;7.626;2024-02-14T01:22:16;20.60;71.30
2363;DHT22;64265;51.664;7.626;2024-02-14T01:24:45;20.60;71.30
2363;DHT22;64265;51.664;7.626;2024-02-14T01:27:12;20.60;71.90
2363;DHT22;64265;51.664;7.626;2024-02-14T01:29:41;20.60;71.20
2363;DHT22;64265;51.664;7.626;2024-02-14T01:32:13;20.60;71.20
2363;DHT22;64265;51.664;7.626;2024-02-14T01:34:44;20.60;71.40
2363;DHT22;64265;51.664;7.626;2024-02-14T01:37:11;20.60;71.40
2363;DHT22;64265;51.664;7.626;2024-02-14T01:39:37;20.50;71.20
2363;DHT22;64265;51.664;7.626;2024-02-14T01:42:08;20.50;71.20
2363;DHT22;64265;51.664;7.626;2024-02-14T01:44:35;20.60;71.30
2363;DHT22;64265;51.664;7.626;2024-02-14T01:47:03;20.50;71.10
2363;DHT22;64265;51.664;7.626;2024-02-14T01:49:32;20.50;71.10
2363;DHT22;64265;51.664;7.626;2024-02-14T01:52:04;20.30;70.90
2363;DHT22;64265;51.664;7.626;2024-02-14T01:54:31;20.50;70.90
2363;DHT22;64265;51.664;7.626;2024-02-14T01:57:03;20.50;71.00
2363;DHT22;64265;51.664;7.626;2024-02-14T01:59:35;20.50;70.90
2363;DHT22;64265;51.664;7.626;2024-02-14T02:02:06;20.50;71.90
2363;DHT22;64265;51.664;7.626;2024-02-14T02:04:33;20.50;71.10
2363;DHT22;64265;51.664;7.626;2024-02-14T02:07:09;20.30;70.90
2363;DHT22;64265;51.664;7.626;2024-02-14T02:09:36;20.40;71.10
2363;DHT22;64265;51.664;7.626;2024-02-14T02:12:05;20.20;70.80
2363;DHT22;64265;51.664;7.626;2024-02-14T02:14:33;20.50;71.20
2363;DHT22;64265;51.664;7.626;2024-02-14T02:17:01;20.40;71.00
2363;DHT22;64265;51.664;7.626;2024-02-14T02:19:36;20.40;71.00
2363;DHT22;64265;51.664;7.626;2024-02-14T02:22:03;20.40;70.90
2363;DHT22;64265;51.664;7.626;2024-02-14T02:24:33;20.90;71.60
2363;DHT22;64265;51.664;7.626;2024-02-14T02:27:05;20.40;71.00
2363;DHT22;64265;51.664;7.626;2024-02-14T02:29:34;20.20;71.00
2363;DHT22;64265;51.664;7.626;2024-02-14T02:32:05;20.40;70.90
2363;DHT22;64265;51.664;7.626;2024-02-14T02:34:35;20.40;71.10
2363;DHT22;64265;51.664;7.626;2024-02-14T02:37:09;20.40;71.20
2363;DHT22;64265;51.664;7.626;2024-02-14T02:39:38;20.40;71.20
2363;DHT22;64265;51.664;7.626;2024-02-14T02:42:07;20.20;70.90
2363;DHT22;64265;51.664;7.626;2024-02-14T02:44:38;20.10;70.70
2363;DHT22;64265;51.664;7.626;2024-02-14T02:47:08;20.40;71.10
2363;DHT22;64265;51.664;7.626;2024-02-14T02:49:39;20.50;71.20
2363;DHT22;64265;51.664;7.626;2024-02-14T02:52:09;20.40;70.90
2363;DHT22;64265;51.664;7.626;2024-02-14T02:54:37;20.40;71.00
2363;DHT22;64265;51.664;7.626;2024-02-14T02:57:09;20.40;71.10
2363;DHT22;64265;51.664;7.626;2024-02-14T02:59:40;20.30;71.00
2363;DHT22;64265;51.664;7.626;2024-02-14T03:02:08;20.10;70.60
2363;DHT22;64265;51.664;7.626;2024-02-14T03:04:43;20.30;71.10
2363;DHT22;64265;51.664;7.626;2024-02-14T03:07:18;20.70;71.70
2363;DHT22;64265;51.664;7.626;2024-02-14T03:09:50;20.30;71.10
2363;DHT22;64265;51.664;7.626;2024-02-14T03:12:19;20.10;70.90
2363;DHT22;64265;51.664;7.626;2024-02-14T03:14:50;20.30;71.10
2363;DHT22;64265;51.664;7.626;2024-02-14T03:17:17;20.30;71.20
2363;DHT22;64265;51.664;7.626;2024-02-14T03:19:48;20.30;71.30
2363;DHT22;64265;51.664;7.626;2024-02-14T03:22:21;20.10;71.00
2363;DHT22;64265;51.664;7.626;2024-02-14T03:24:49;20.30;70.90
2363;DHT22;64265;51.664;7.626;2024-02-14T03:27:19;20.70;71.50
2363;DHT22;64265;51.664;7.626;2024-02-14T03:29:48;20.30;71.00
2363;DHT22;64265;51.664;7.626;2024-02-14T03:32:27;20.30;71.20
2363;DHT22;64265;51.664;7.626;2024-02-14T03:34:54;20.20;71.00
2363;DHT22;64265;51.664;7.626;2024-02-14T03:37:20;20.30;71.20
2363;DHT22;64265;51.664;7.626;2024-02-14T03:39:51;20.10;71.10
2363;DHT22;64265;51.664;7.626;2024-02-14T03:42:18;20.10;71.10
2363;DHT22;64265;51.664;7.626;2024-02-14T03:44:45;20.20;71.20
2363;DHT22;64265;51.664;7.626;2024-02-14T03:47:15;20.10;71.00
2363;DHT22;64265;51.664;7.626;2024-02-14T03:49:44;20.20;71.00
2363;DHT22;64265;51.664;7.626;2024-02-14T03:52:13;20.20;71.20
2363;DHT22;64265;51.664;7.626;2024-02-14T03:54:42;20.20;71.90
2363;DHT22;64265;51.664;7.626;2024-02-14T03:57:15;20.60;71.50
2363;DHT22;64265;51.664;7.626;2024-02-14T03:59:46;20.20;71.10
2363;DHT22;64265;51.664;7.626;2024-02-14T04:02:14;20.70;71.60
2363;DHT22;64265;51.664;7.626;2024-02-14T04:04:46;20.30;71.60
2363;DHT22;64265;51.664;7.626;2024-02-14T04:07:14;20.20;71.20
2363;DHT22;64265;51.664;7.626;2024-02-14T04:09:43;20.20;72.00
2363;DHT22;64265;51.664;7.626;2024-02-14T04:12:14;20.30;71.40
2363;DHT22;64265;51.664;7.626;2024-02-14T04:14:43;20.20;71.20
2363;DHT22;64265;51.664;7.626;2024-02-14T04:17:14;20.20;71.30
2363;DHT22;64265;51.664;7.626;2024-02-14T04:19:40;20.30;71.80
2363;DHT22;64265;51.664;7.626;2024-02-14T04:22:12;20.10;71.20
2363;DHT22;64265;51.664;7.626;2024-02-14T04:24:45;20.10;71.00
2363;DHT22;64265;51.664;7.626;2024-02-14T04:27:14;20.10;71.10
2363;DHT22;64265;51.664;7.626;2024-02-14T04:29:45;20.00;71.00
2363;DHT22;64265;51.664;7.626;2024-02-14T04:32:12;20.20;71.30
2363;DHT22;64265;51.664;7.626;2024-02-14T04:34:40;20.20;71.20
2363;DHT22;64265;51.664;7.626;2024-02-14T04:37:14;19.90;71.00
2363;DHT22;64265;51.664;7.626;2024-02-14T04:39:44;20.10;71.10
2363;DHT22;64265;51.664;7.626;2024-02-14T04:42:11;19.90;71.00
2363;DHT22;64265;51.664;7.626;2024-02-14T04:44:41;19.90;71.00
2363;DHT22;64265;51.664;7.626;2024-02-14T04:47:12;20.30;71.40
2363;DHT22;64265;51.664;7.626;2024-02-14T04:49:40;19.90;71.00
2363;DHT22;64265;51.664;7.626;2024-02-14T04:52:15;20.00;71.00
2363;DHT22;64265;51.664;7.626;2024-02-14T04:54:48;19.70;70.60
2363;DHT22;64265;51.664;7.626;2024-02-14T04:57:15;20.10;71.20
2363;DHT22;64265;51.664;7.626;2024-02-14T04:59:46;19.90;70.90
2363;DHT22;64265;51.664;7.626;2024-02-14T05:02:13;20.10;71.00
2363;DHT22;64265;51.664;7.626;2024-02-14T05:04:40;20.10;71.90
2363;DHT22;64265;51.664;7.626;2024-02-14T05:07:10;20.00;71.00
2363;DHT22;64265;51.664;7.626;2024-02-14T05:09:38;20.50;71.80
2363;DHT22;64265;51.664;7.626;2024-02-14T05:12:11;20.40;71.40
2363;DHT22;64265;51.664;7.626;2024-02-14T05:14:41;19.90;71.00
2363;DHT22;64265;51.664;7.626;2024-02-14T05:17:12;20.00;71.00
2363;DHT22;64265;51.664;7.626;2024-02-14T05:19:41;20.50;71.70
2363;DHT22;64265;51.664;7.626;2024-02-14T05:22:08;20.10;71.30
2363;DHT22;64265;51.664;7.626;2024-02-14T05:24:35;20.00;71.10
2363;DHT22;64265;51.664;7.626;2024-02-14T05:27:03;20.10;71.20
2363;DHT22;64265;51.664;7.626;2024-02-14T05:29:32;20.10;71.20
2363;DHT22;64265;51.664;7.626;2024-02-14T05:32:02;20.10;71.10
2363;DHT22;64265;51.664;7.626;2024-02-14T05:34:30;20.10;71.20
2363;DHT22;64265;51.664;7.626;2024-02-14T05:37:01;20.20;71.40
2363;DHT22;64265;51.664;7.626;2024-02-14T05:39:35;20.00;71.00
2363;DHT22;64265;51.664;7.626;2024-02-14T05:42:02;20.00;71.10
2363;DHT22;64265;51.664;7.626;2024-02-14T05:44:30;20.00;71.10
2363;DHT22;64265;51.664;7.626;2024-02-14T05:47:03;20.10;71.30
2363;DHT22;64265;51.664;7.626;2024-02-14T05:49:34;20.00;71.20
2363;DHT22;64265;51.664;7.626;2024-02-14T05:52:02;20.00;71.50
2363;DHT22;64265;51.664;7.626;2024-02-14T05:54:32;20.00;71.50
2363;DHT22;64265;51.664;7.626;2024-02-14T05:56:59;20.40;72.30
2363;DHT22;64265;51.664;7.626;2024-02-14T05:59:28;20.10;72.00
2363;DHT22;64265;51.664;7.626;2024-02-14T06:01:56;19.90;72.00
2363;DHT22;64265;51.664;7.626;2024-02-14T06:04:24;20.10;72.40
2363;DHT22;64265;51.664;7.626;2024-02-14T06:06:52;20.10;72.50
2363;DHT22;64265;51.664;7.626;2024-02-14T06:09:19;20.10;73.10
2363;DHT22;64265;51.664;7.626;2024-02-14T06:11:48;20.10;72.40
2363;DHT22;64265;51.664;7.626;2024-02-14T06:14:15;20.10;72.40
2363;DHT22;64265;51.664;7.626;2024-02-14T06:16:42;20.20;72.80
2363;DHT22;64265;51.664;7.626;2024-02-14T06:19:11;20.00;72.40
2363;DHT22;64265;51.664;7.626;2024-02-14T06:21:40;20.20;72.80
2363;DHT22;64265;51.664;7.626;2024-02-14T06:24:08;20.00;73.40
2363;DHT22;64265;51.664;7.626;2024-02-14T06:26:40;20.20;72.90
2363;DHT22;64265;51.664;7.626;2024-02-14T06:29:12;20.70;73.40
2363;DHT22;64265;51.664;7.626;2024-02-14T06:31:39;20.10;72.70
2363;DHT22;64265;51.664;7.626;2024-02-14T06:34:07;20.20;72.90
2363;DHT22;64265;51.664;7.626;2024-02-14T06:36:36;20.40;73.10
2363;DHT22;64265;51.664;7.626;2024-02-14T06:39:03;20.40;73.10
2363;DHT22;64265;51.664;7.626;2024-02-14T06:41:38;20.40;73.10
2363;DHT22;64265;51.664;7.626;2024-02-14T06:44:07;20.60;73.30
2363;DHT22;64265;51.664;7.626;2024-02-14T06:46:34;20.50;73.20
2363;DHT22;64265;51.664;7.626;2024-02-14T06:49:03;20.80;73.50
2363;DHT22;64265;51.664;7.626;2024-02-14T06:51:30;20.40;73.10
2363;DHT22;64265;51.664;7.626;2024-02-14T06:53:58;21.00;73.80
2363;DHT22;64265;51.664;7.626;2024-02-14T06:56:29;20.40;73.20
2363;DHT22;64265;51.664;7.626;2024-02-14T06:58:59;20.50;73.10
2363;DHT22;64265;51.664;7.626;2024-02-14T07:01:30;20.70;73.50
2363;DHT22;64265;51.664;7.626;2024-02-14T07:03:59;20.60;73.30
2363;DHT22;64265;51.664;7.626;2024-02-14T07:06:26;20.60;73.40
2363;DHT22;64265;51.664;7.626;2024-02-14T07:08:56;20.60;73.20
2363;DHT22;64265;51.664;7.626;2024-02-14T07:11:27;20.60;73.40
2363;DHT22;64265;51.664;7.626;2024-02-14T07:13:54;20.60;73.10
2363;DHT22;64265;51.664;7.626;2024-02-14T07:16:32;20.60;73.40
2363;DHT22;64265;51.664;7.626;2024-02-14T07:18:59;20.10;72.70
2363;DHT22;64265;51.664;7.626;2024-02-14T07:21:27;20.30;72.90
2363;DHT22;64265;51.664;7.626;2024-02-14T07:23:54;20.60;73.10
2363;DHT22;64265;51.664;7.626;2024-02-14T07:26:24;20.60;73.20
2363;DHT22;64265;51.664;7.626;2024-02-14T07:28:51;20.60;73.10
2363;DHT22;64265;51.664;7.626;2024-02-14T07:31:19;20.60;73.10
2363;DHT22;64265;51.664;7.626;2024-02-14T07:33:50;20.80;73.50
2363;DHT22;64265;51.664;7.626;2024-02-14T07:36:20;20.70;73.50
2363;DHT22;64265;51.664;7.626;2024-02-14T07:38:50;20.60;74.00
2363;DHT22;64265;51.664;7.626;2024-02-14T07:41:27;20.70;73.60
2363;DHT22;64265;51.664;7.626;2024-02-14T07:43:55;20.70;73.30
2363;DHT22;64265;51.664;7.626;2024-02-14T07:46:25;20.80;73.40
2363;DHT22;64265;51.664;7.626;2024-02-14T07:48:58;20.80;73.30
2363;DHT22;64265;51.664;7.626;2024-02-14T07:51:29;20.80;73.30
2363;DHT22;64265;51.664;7.626;2024-02-14T07:54:02;20.80;73.30
2363;DHT22;64265;51.664;7.626;2024-02-14T07:56:29;20.80;73.20
2363;DHT22;64265;51.664;7.626;2024-02-14T07:59:03;20.90;73.10
2363;DHT22;64265;51.664;7.626;2024-02-14T08:01:31;20.90;72.90
2363;DHT22;64265;51.664;7.626;2024-02-14T08:03:59;20.90;72.90
2363;DHT22;64265;51.664;7.626;2024-02-14T08:06:26;20.90;72.80
2363;DHT22;64265;51.664;7.626;2024-02-14T08:08:55;20.90;72.80
2363;DHT22;64265;51.664;7.626;2024-02-14T08:11:27;20.90;72.60
2363;DHT22;64265;51.664;7.626;2024-02-14T08:13:56;20.90;72.60
2363;DHT22;64265;51.664;7.626;2024-02-14T08:16:23;20.90;72.50
2363;DHT22;64265;51.664;7.626;2024-02-14T08:18:55;20.90;72.40
2363;DHT22;64265;51.664;7.626;2024-02-14T08:21:28;20.90;72.30
2363;DHT22;64265;51.664;7.626;2024-02-14T08:23:56;20.90;72.30
2363;DHT22;64265;51.664;7.626;2024-02-14T08:26:24;20.90;72.30
2363;DHT22;64265;51.664;7.626;2024-02-14T08:28:51;20.90;72.30
2363;DHT22;64265;51.664;7.626;2024-02-14T08:31:21;20.90;72.10
2363;DHT22;64265;51.664;7.626;2024-02-14T08:33:48;20.90;72.30
2363;DHT22;64265;51.664;7.626;2024-02-14T08:36:15;21.00;72.20
2363;DHT22;64265;51.664;7.626;2024-02-14T08:38:45;21.00;72.20
2363;DHT22;64265;51.664;7.626;2024-02-14T08:41:12;20.90;72.10
2363;DHT22;64265;51.664;7.626;2024-02-14T08:43:39;21.40;72.60
2363;DHT22;64265;51.664;7.626;2024-02-14T08:46:11;20.80;71.90
2363;DHT22;64265;51.664;7.626;2024-02-14T08:48:38;20.90;72.00
2363;DHT22;64265;51.664;7.626;2024-02-14T08:51:07;20.90;72.20
2363;DHT22;64265;51.664;7.626;2024-02-14T08:53:34;20.90;72.10
2363;DHT22;64265;51.664;7.626;2024-02-14T08:56:04;20.90;72.80
2363;DHT22;64265;51.664;7.626;2024-02-14T08:58:33;20.90;72.00
2363;DHT22;64265;51.664;7.626;2024-02-14T09:01:00;20.90;72.00
2363;DHT22;64265;51.664;7.626;2024-02-14T09:03:27;20.90;71.80
2363;DHT22;64265;51.664;7.626;2024-02-14T09:06:01;20.80;71.70
2363;DHT22;64265;51.664;7.626;2024-02-14T09:08:30;20.90;71.80
2363;DHT22;64265;51.664;7.626;2024-02-14T09:10:58;20.70;71.70
2363;DHT22;64265;51.664;7.626;2024-02-14T09:13:26;20.90;71.80
2363;DHT22;64265;51.664;7.626;2024-02-14T09:15:53;20.90;72.00
2363;DHT22;64265;51.664;7.626;2024-02-14T09:18:22;20.80;71.80
2363;DHT22;64265;51.664;7.626;2024-02-14T09:20:53;20.70;71.70
2363;DHT22;64265;51.664;7.626;2024-02-14T09:23:24;20.80;71.70
2363;DHT22;64265;51.664;7.626;2024-02-14T09:25:51;20.70;71.60
2363;DHT22;64265;51.664;7.626;2024-02-14T09:28:17;21.10;72.20
2363;DHT22;64265;51.664;7.626;2024-02-14T09:30:48;20.80;72.60
2363;DHT22;64265;51.664;7.626;2024-02-14T09:33:16;20.80;72.00
2363;DHT22;64265;51.664;7.626;2024-02-14T09:35:46;20.90;72.30
2363;DHT22;64265;51.664;7.626;2024-02-14T09:38:13;20.50;72.00
2363;DHT22;64265;51.664;7.626;2024-02-14T09:40:44;20.90;73.10
2363;DHT22;64265;51.664;7.626;2024-02-14T09:43:17;21.20;74.00
2363;DHT22;64265;51.664;7.626;2024-02-14T09:45:51;21.00;73.70
2363;DHT22;64265;51.664;7.626;2024-02-14T09:48:20;20.90;74.00
2363;DHT22;64265;51.664;7.626;2024-02-14T09:50:52;20.80;73.90
2363;DHT22;64265;51.664;7.626;2024-02-14T09:53:29;21.00;74.30
2363;DHT22;64265;51.664;7.626;2024-02-14T09:55:57;21.40;74.80
2363;DHT22;64265;51.664;7.626;2024-02-14T09:58:24;21.00;74.20
2363;DHT22;64265;51.664;7.626;2024-02-14T10:00:55;20.90;74.10
2363;DHT22;64265;51.664;7.626;2024-02-14T10:03:26;21.00;74.30
2363;DHT22;64265;51.664;7.626;2024-02-14T10:05:53;20.90;74.20
2363;DHT22;64265;51.664;7.626;2024-02-14T10:08:23;20.80;74.10
2363;DHT22;64265;51.664;7.626;2024-02-14T10:10:51;21.00;74.40
2363;DHT22;64265;51.664;7.626;2024-02-14T10:13:19;21.00;74.50
2363;DHT22;64265;51.664;7.626;2024-02-14T10:15:47;21.30;75.30
2363;DHT22;64265;51.664;7.626;2024-02-14T10:18:15;21.30;75.50
2363;DHT22;64265;51.664;7.626;2024-02-14T10:20:57;20.90;75.50
2363;DHT22;64265;51.664;7.626;2024-02-14T10:23:26;21.30;75.60
2363;DHT22;64265;51.664;7.626;2024-02-14T10:25:56;21.20;75.60
2363;DHT22;64265;51.664;7.626;2024-02-14T10:28:24;21.00;75.50
2363;DHT22;64265;51.664;7.626;2024-02-14T10:30:57;20.90;75.30
2363;DHT22;64265;51.664;7.626;2024-02-14T10:33:31;21.30;75.60
2363;DHT22;64265;51.664;7.626;2024-02-14T10:35:58;21.10;76.20
2363;DHT22;64265;51.664;7.626;2024-02-14T10:38:34;21.10;75.60
2363;DHT22;64265;51.664;7.626;2024-02-14T10:41:08;21.10;75.20
2363;DHT22;64265;51.664;7.626;2024-02-14T10:43:37;21.00;75.20
2363;DHT22;64265;51.664;7.626;2024-02-14T10:46:12;21.00;75.10
2363;DHT22;64265;51.664;7.626;2024-02-14T10:48:41;21.30;76.00
2363;DHT22;64265;51.664;7.626;2024-02-14T10:51:12;21.00;75.10
2363;DHT22;64265;51.664;7.626;2024-02-14T10:53:45;21.20;75.30
2363;DHT22;64265;51.664;7.626;2024-02-14T10:56:17;21.30;75.10
2363;DHT22;64265;51.664;7.626;2024-02-14T10:58:51;21.10;74.90
2363;DHT22;64265;51.664;7.626;2024-02-14T11:01:22;21.30;75.00
2363;DHT22;64265;51.664;7.626;2024-02-14T11:03:52;21.60;75.40
2363;DHT22;64265;51.664;7.626;2024-02-14T11:06:26;21.50;75.30
2363;DHT22;64265;51.664;7.626;2024-02-14T11:09:00;21.30;74.90
2363;DHT22;64265;51.664;7.626;2024-02-14T11:11:33;21.20;74.70
2363;DHT22;64265;51.664;7.626;2024-02-14T11:14:02;21.30;74.80
2363;DHT22;64265;51.664;7.626;2024-02-14T11:16:30;21.20;75.00
2363;DHT22;64265;51.664;7.626;2024-02-14T11:19:15;21.10;74.70
2363;DHT22;64265;51.664;7.626;2024-02-14T11:21:44;21.30;74.90
2363;DHT22;64265;51.664;7.626;2024-02-14T11:24:14;21.30;74.90
2363;DHT22;64265;51.664;7.626;2024-02-14T11:26:48;21.30;75.00
2363;DHT22;64265;51.664;7.626;2024-02-14T11:29:18;21.40;75.00
2363;DHT22;64265;51.664;7.626;2024-02-14T11:31:47;21.60;75.30
2363;DHT22;64265;51.664;7.626;2024-02-14T11:34:17;21.40;75.10
2363;DHT22;64265;51.664;7.626;2024-02-14T11:36:45;21.40;75.10
2363;DHT22;64265;51.664;7.626;2024-02-14T11:39:12;21.40;75.10
2363;DHT22;64265;51.664;7.626;2024-02-14T11:41:42;21.40;75.10
2363;DHT22;64265;51.664;7.626;2024-02-14T11:44:09;21.40;74.80
2363;DHT22;64265;51.664;7.626;2024-02-14T11:46:39;21.50;75.20
2363;DHT22;64265;51.664;7.626;2024-02-14T11:49:11;21.50;75.00
2363;DHT22;64265;51.664;7.626;2024-02-14T11:51:43;21.50;75.00
2363;DHT22;64265;51.664;7.626;2024-02-14T11:54:10;21.50;75.00
2363;DHT22;64265;51.664;7.626;2024-02-14T11:56:40;21.50;75.00
2363;DHT22;64265;51.664;7.626;2024-02-14T11:59:08;21.60;75.00
2363;DHT22;64265;51.664;7.626;2024-02-14T12:01:38;21.50;74.90
2363;DHT22;64265;51.664;7.626;2024-02-14T12:04:06;21.50;75.00
2363;DHT22;64265;51.664;7.626;2024-02-14T12:06:39;21.30;74.70
2363;DHT22;64265;51.664;7.626;2024-02-14T12:09:08;21.30;74.70
2363;DHT22;64265;51.664;7.626;2024-02-14T12:11:36;21.50;74.90
2363;DHT22;64265;51.664;7.626;2024-02-14T12:14:08;21.30;73.70
2363;DHT22;64265;51.664;7.626;2024-02-14T12:16:38;21.30;73.10
2363;DHT22;64265;51.664;7.626;2024-02-14T12:19:16;21.30;73.10
2363;DHT22;64265;51.664;7.626;2024-02-14T12:21:47;21.20;72.80
2363;DHT22;64265;51.664;7.626;2024-02-14T12:24:18;21.30;73.00
2363;DHT22;64265;51.664;7.626;2024-02-14T12:26:46;20.90;72.40
2363;DHT22;64265;51.664;7.626;2024-02-14T12:29:17;20.80;72.40
2363;DHT22;64265;51.664;7.626;2024-02-14T12:31:49;20.90;72.70
2363;DHT22;64265;51.664;7.626;2024-02-14T12:34:16;20.90;72.70
2363;DHT22;64265;51.664;7.626;2024-02-14T12:36:46;20.80;72.70
2363;DHT22;64265;51.664;7.626;2024-02-14T12:39:19;20.80;72.80
2363;DHT22;64265;51.664;7.626;2024-02-14T12:41:48;20.80;73.30
2363;DHT22;64265;51.664;7.626;2024-02-14T12:44:17;20.70;73.90
2363;DHT22;64265;51.664;7.626;2024-02-14T12:46:45;20.90;74.20
2363;DHT22;64265;51.664;7.626;2024-02-14T12:49:12;20.90;73.90
2363;DHT22;64265;51.664;7.626;2024-02-14T12:51:39;20.90;74.20
2363;DHT22;64265;51.664;7.626;2024-02-14T12:54:06;21.20;74.80
2363;DHT22;64265;51.664;7.626;2024-02-14T12:56:41;21.60;75.30
2363;DHT22;64265;51.664;7.626;2024-02-14T12:59:08;21.30;75.20
2363;DHT22;64265;51.664;7.626;2024-02-14T13:01:41;21.30;75.40
2363;DHT22;64265;51.664;7.626;2024-02-14T13:04:09;21.40;76.20
2363;DHT22;64265;51.664;7.626;2024-02-14T13:06:36;21.30;76.00
2363;DHT22;64265;51.664;7.626;2024-02-14T13:09:06;21.40;76.30
2363;DHT22;64265;51.664;7.626;2024-02-14T13:11:33;21.50;76.40
2363;DHT22;64265;51.664;7.626;2024-02-14T13:14:02;21.30;76.20
2363;DHT22;64265;51.664;7.626;2024-02-14T13:16:29;21.60;76.60
2363;DHT22;64265;51.664;7.626;2024-02-14T13:18:56;22.00;77.30
2363;DHT22;64265;51.664;7.626;2024-02-14T13:21:26;21.50;76.80
2363;DHT22;64265;51.664;7.626;2024-02-14T13:23:52;21.50;77.10
2363;DHT22;64265;51.664;7.626;2024-02-14T13:26:19;21.60;77.10
2363;DHT22;64265;51.664;7.626;2024-02-14T13:28:47;21.70;77.40
2363;DHT22;64265;51.664;7.626;2024-02-14T13:31:16;21.40;77.50
2363;DHT22;64265;51.664;7.626;2024-02-14T13:33:42;21.70;78.30
2363;DHT22;64265;51.664;7.626;2024-02-14T13:36:09;21.70;77.80
2363;DHT22;64265;51.664;7.626;2024-02-14T13:38:36;21.60;78.40
2363;DHT22;64265;51.664;7.626;2024-02-14T13:41:03;21.70;79.00
2363;DHT22;64265;51.664;7.626;2024-02-14T13:43:31;21.70;78.50
2363;DHT22;64265;51.664;7.626;2024-02-14T13:45:58;21.70;78.50
2363;DHT22;64265;51.664;7.626;2024-02-14T13:48:26;21.70;78.60
2363;DHT22;64265;51.664;7.626;2024-02-14T13:50:56;21.80;77.70
2363;DHT22;64265;51.664;7.626;2024-02-14T13:53:27;21.70;78.20
2363;DHT22;64265;51.664;7.626;2024-02-14T13:55:54;21.70;78.10
2363;DHT22;64265;51.664;7.626;2024-02-14T13:58:25;21.80;77.80
2363;DHT22;64265;51.664;7.626;2024-02-14T14:00:53;22.20;78.70
2363;DHT22;64265;51.664;7.626;2024-02-14T14:03:20;21.70;78.30
2363;DHT22;64265;51.664;7.626;2024-02-14T14:05:50;21.80;78.80
2363;DHT22;64265;51.664;7.626;2024-02-14T14:08:19;21.70;78.40
2363;DHT22;64265;51.664;7.626;2024-02-14T14:10:46;21.50;78.20
2363;DHT22;64265;51.664;7.626;2024-02-14T14:13:12;21.60;78.50
2363;DHT22;64265;51.664;7.626;2024-02-14T14:15:43;21.60;78.50
2363;DHT22;64265;51.664;7.626;2024-02-14T14:18:09;21.70;78.60
2363;DHT22;64265;51.664;7.626;2024-02-14T14:20:37;22.20;79.00
2363;DHT22;64265;51.664;7.626;2024-02-14T14:23:09;21.80;73.80
2363;DHT22;64265;51.664;7.626;2024-02-14T14:25:35;21.80;73.70
2363;DHT22;64265;51.664;7.626;2024-02-14T14:28:06;21.80;73.80
2363;DHT22;64265;51.664;7.626;2024-02-14T14:30:37;21.80;73.90
2363;DHT22;64265;51.664;7.626;2024-02-14T14:33:05;21.80;73.90
2363;DHT22;64265;51.664;7.626;2024-02-14T14:35:37;21.80;73.90
2363;DHT22;64265;51.664;7.626;2024-02-14T14:38:10;21.80;73.90
2363;DHT22;64265;51.664;7.626;2024-02-14T14:40:40;21.80;73.90
2363;DHT22;64265;51.664;7.626;2024-02-14T14:43:07;21.90;74.00
2363;DHT22;64265;51.664;7.626;2024-02-14T14:45:35;21.90;73.90
2363;DHT22;64265;51.664;7.626;2024-02-14T14:48:09;21.90;74.00
2363;DHT22;64265;51.664;7.626;2024-02-14T14:50:36;21.90;73.90
2363;DHT22;64265;51.664;7.626;2024-02-14T14:53:03;21.80;73.80
2363;DHT22;64265;51.664;7.626;2024-02-14T14:55:52;21.90;74.00
2363;DHT22;64265;51.664;7.626;2024-02-14T14:58:18;21.90;73.90
2363;DHT22;64265;51.664;7.626;2024-02-14T15:00:47;21.90;74.00
2363;DHT22;64265;51.664;7.626;2024-02-14T15:03:14;21.90;73.90
2363;DHT22;64265;51.664;7.626;2024-02-14T15:05:41;21.90;73.90
2363;DHT22;64265;51.664;7.626;2024-02-14T15:08:10;21.90;73.90
2363;DHT22;64265;51.664;7.626;2024-02-14T15:10:37;21.90;73.90
2363;DHT22;64265;51.664;7.626;2024-02-14T15:13:06;21.90;74.00
2363;DHT22;64265;51.664;7.626;2024-02-14T15:15:34;21.90;73.90
2363;DHT22;64265;51.664;7.626;2024-02-14T15:18:04;21.90;73.90
2363;DHT22;64265;51.664;7.626;2024-02-14T15:20:32;22.00;74.00
2363;DHT22;64265;51.664;7.626;2024-02-14T15:23:01;21.90;73.90
2363;DHT22;64265;51.664;7.626;2024-02-14T15:25:28;21.90;73.90
2363;DHT22;64265;51.664;7.626;2024-02-14T15:27:55;21.90;73.90
2363;DHT22;64265;51.664;7.626;2024-02-14T15:30:37;21.90;74.00
2363;DHT22;64265;51.664;7.626;2024-02-14T15:33:23;22.00;74.10
2363;DHT22;64265;51.664;7.626;2024-02-14T15:35:55;22.00;74.10
2363;DHT22;64265;51.664;7.626;2024-02-14T15:38:24;22.00;74.20
2363;DHT22;64265;51.664;7.626;2024-02-14T15:40:56;22.00;74.30
2363;DHT22;64265;51.664;7.626;2024-02-14T15:43:30;22.00;74.20
2363;DHT22;64265;51.664;7.626;2024-02-14T15:46:11;22.00;74.10
2363;DHT22;64265;51.664;7.626;2024-02-14T15:48:44;22.00;74.10
2363;DHT22;64265;51.664;7.626;2024-02-14T15:51:29;22.00;74.20
2363;DHT22;64265;51.664;7.626;2024-02-14T15:53:59;22.00;74.10
2363;DHT22;64265;51.664;7.626;2024-02-14T15:56:27;22.00;74.20
2363;DHT22;64265;51.664;7.626;2024-02-14T15:59:05;22.00;74.20